21°C Temp
12°C Dewpoint
57% Humidity
Temperature
10 KM/H
6 MPH
5 KTS
180°
Due South

Wind Speed
Clear
Conditions
Pressure 1026.92 (hPa) - 30.32 (in)
Visibility 6.2 (mi) - 10.0 (km)

Current Conditions
EKCH
Location 55(km)
Metar :EKCH 241220Z AUTO 18005KT 140V210 9999 NCD 21/12 Q1027 NOSIG
Mon 24th June 14:20 pm

Airport
  Metar Aviation API Data Provided by https://www.checkwx.com/ PHP scripts by weather34.com ©2019